Time;durP1;ratioP1;P1;durP2;ratioP2;P2;SDS_P1;SDS_P2;PMS_P1;PMS_P2;Temp;Humidity;BMP_temperature;BMP_pressure;BME280_temperature;BME280_humidity;BME280_pressure;Samples;Min_cycle;Max_cycle;Signal;HPM_P1;HPM_P2
2022/12/16 00:00:22;;;;;;;15.88;10.73;;;6.50;88.20;;;;;;4974911;28;20039;-17
2022/12/16 00:02:52;;;;;;;14.82;8.80;;;6.50;88.10;;;;;;4974215;28;20054;-18
2022/12/16 00:05:21;;;;;;;18.90;10.95;;;6.50;88.10;;;;;;4974375;28;20054;-17
2022/12/16 00:07:47;;;;;;;18.38;11.32;;;6.60;88.10;;;;;;4974913;28;20282;-17
2022/12/16 00:10:13;;;;;;;18.35;10.82;;;6.60;88.10;;;;;;4973282;28;20443;-15
2022/12/16 00:12:39;;;;;;;13.70;8.63;;;6.60;88.00;;;;;;4974725;28;20037;-15
2022/12/16 00:15:06;;;;;;;16.83;10.50;;;6.60;88.00;;;;;;4973282;28;20035;-15
2022/12/16 00:17:32;;;;;;;13.57;9.80;;;6.60;88.10;;;;;;4974473;28;20029;-17
2022/12/16 00:19:58;;;;;;;17.90;10.30;;;6.70;88.10;;;;;;4974235;28;20054;-17
2022/12/16 00:22:24;;;;;;;17.63;10.57;;;6.70;88.00;;;;;;4974229;28;20063;-17
2022/12/16 00:24:51;;;;;;;22.63;13.63;;;6.70;88.00;;;;;;4974117;28;20077;-17
2022/12/16 00:27:17;;;;;;;22.17;12.95;;;6.70;88.00;;;;;;4974017;28;20182;-16
2022/12/16 00:29:43;;;;;;;20.30;13.38;;;6.70;87.90;;;;;;4974184;28;20106;-17
2022/12/16 00:32:09;;;;;;;20.30;12.73;;;6.70;87.80;;;;;;4974455;28;20027;-16
2022/12/16 00:34:35;;;;;;;20.73;12.15;;;6.70;87.80;;;;;;4974048;28;20391;-17
2022/12/16 00:37:01;;;;;;;22.52;12.77;;;6.60;87.80;;;;;;4973965;28;20023;-17
2022/12/16 00:39:26;;;;;;;20.92;13.38;;;6.60;87.80;;;;;;4972834;28;20066;-16
2022/12/16 00:41:52;;;;;;;22.30;13.35;;;6.60;87.70;;;;;;4974019;28;20068;-16
2022/12/16 00:44:18;;;;;;;20.48;13.30;;;6.60;87.70;;;;;;4973968;28;20037;-16
2022/12/16 00:46:44;;;;;;;20.48;12.77;;;6.60;87.70;;;;;;4973908;28;20039;-17
2022/12/16 00:49:10;;;;;;;21.60;13.70;;;6.60;87.70;;;;;;4972367;28;20058;-17
2022/12/16 00:51:36;;;;;;;19.65;12.57;;;6.50;87.60;;;;;;4973965;28;20034;-16
2022/12/16 00:54:02;;;;;;;18.33;11.88;;;6.50;87.60;;;;;;4973922;28;20019;-16
2022/12/16 00:56:28;;;;;;;16.15;10.13;;;6.50;87.60;;;;;;4974193;28;20019;-17
2022/12/16 00:58:54;;;;;;;15.30;9.85;;;6.50;87.50;;;;;;4973632;28;20106;-18
2022/12/16 01:01:20;;;;;;;13.43;8.45;;;6.40;87.60;;;;;;4974618;28;20119;-17
2022/12/16 01:03:46;;;;;;;11.23;6.75;;;6.50;87.60;;;;;;4972602;28;20483;-12
2022/12/16 01:06:16;;;;;;;8.60;5.05;;;6.50;87.60;;;;;;4973671;28;20031;-16
2022/12/16 01:08:48;;;;;;;9.50;4.72;;;6.40;87.60;;;;;;4974136;28;20569;-15
2022/12/16 01:11:17;;;;;;;5.15;3.60;;;6.50;87.60;;;;;;4974172;28;20058;-17
2022/12/16 01:13:44;;;;;;;5.82;3.50;;;6.40;87.60;;;;;;4974887;28;20034;-17
2022/12/16 01:16:10;;;;;;;5.25;3.70;;;6.50;87.60;;;;;;4978006;28;20058;-17
2022/12/16 01:18:36;;;;;;;5.30;3.13;;;6.40;87.60;;;;;;4977622;28;20463;-17
2022/12/16 01:21:05;;;;;;;6.45;3.80;;;6.40;87.60;;;;;;4977647;28;20031;-17
2022/12/16 01:23:31;;;;;;;6.50;3.70;;;6.40;87.70;;;;;;4976312;28;20058;-17
2022/12/16 01:25:59;;;;;;;7.60;4.30;;;6.40;87.70;;;;;;4977448;28;20077;-17
2022/12/16 01:28:26;;;;;;;8.13;4.68;;;6.40;87.70;;;;;;4977453;28;20029;-16
2022/12/16 01:31:02;;;;;;;10.32;6.45;;;6.40;87.70;;;;;;4977358;28;20031;-16
2022/12/16 01:33:32;;;;;;;14.70;8.85;;;6.40;87.80;;;;;;4977840;28;20073;-16
2022/12/16 01:36:04;;;;;;;13.82;9.13;;;6.40;87.70;;;;;;4977246;28;20023;-15
2022/12/16 01:38:31;;;;;;;15.32;9.93;;;6.40;87.70;;;;;;4977661;28;20061;-16
2022/12/16 01:40:57;;;;;;;18.52;11.80;;;6.40;87.70;;;;;;4977340;28;20467;-17
2022/12/16 01:43:27;;;;;;;18.05;11.85;;;6.40;87.70;;;;;;4977269;28;20560;-17
2022/12/16 01:46:04;;;;;;;18.27;11.35;;;6.40;87.80;;;;;;4977104;28;20073;-16
2022/12/16 01:48:37;;;;;;;21.27;13.77;;;6.40;87.80;;;;;;4977267;28;20478;-16
2022/12/16 01:51:14;;;;;;;21.43;14.47;;;6.40;87.80;;;;;;4976805;28;20062;-16
2022/12/16 01:53:42;;;;;;;22.88;13.80;;;6.50;87.80;;;;;;4977110;28;20031;-17
2022/12/16 01:56:11;;;;;;;21.10;13.57;;;6.40;87.70;;;;;;4977273;28;20030;-17
2022/12/16 01:58:40;;;;;;;23.58;14.20;;;6.40;87.70;;;;;;4977237;28;20505;-16
2022/12/16 02:01:05;;;;;;;24.58;15.27;;;6.50;87.70;;;;;;4976694;28;20027;-17
2022/12/16 02:03:35;;;;;;;26.40;16.35;;;6.50;87.80;;;;;;4976958;28;20027;-14
2022/12/16 02:06:04;;;;;;;24.63;14.80;;;6.50;87.70;;;;;;4976576;28;20051;-15
2022/12/16 02:08:30;;;;;;;26.33;15.57;;;6.50;87.70;;;;;;4977115;28;20026;-17
2022/12/16 02:11:17;;;;;;;24.10;15.45;;;6.60;87.60;;;;;;4976643;28;20026;-16
2022/12/16 02:14:00;;;;;;;23.98;15.35;;;6.50;87.50;;;;;;4976689;28;20062;-17
2022/12/16 02:16:29;;;;;;;23.87;15.33;;;6.50;87.50;;;;;;4976980;28;20061;-16
2022/12/16 02:18:58;;;;;;;26.65;15.73;;;6.50;87.50;;;;;;4976299;28;20267;-16
2022/12/16 02:22:02;;;;;;;24.27;15.27;;;6.50;87.50;;;;;;4976378;28;20502;-17
2022/12/16 02:24:58;;;;;;;23.58;14.77;;;6.50;87.60;;;;;;4916487;29;20608;-16
2022/12/16 02:28:01;;;;;;;25.35;14.93;;;6.50;87.60;;;;;;4916907;29;20144;-17
2022/12/16 02:30:51;;;;;;;24.03;15.23;;;6.50;87.60;;;;;;4916714;29;20563;-14
2022/12/16 02:33:21;;;;;;;25.75;14.98;;;6.60;87.60;;;;;;4916781;29;20492;-15
2022/12/16 02:36:10;;;;;;;24.98;15.82;;;6.60;87.70;;;;;;4916750;29;20131;-15
2022/12/16 02:38:36;;;;;;;25.55;15.32;;;6.60;87.70;;;;;;4916674;29;20092;-15
2022/12/16 02:41:10;;;;;;;27.75;15.90;;;6.60;87.70;;;;;;4916432;29;20421;-16
2022/12/16 02:44:04;;;;;;;20.70;12.50;;;6.70;87.60;;;;;;4900816;29;20032;-17
2022/12/16 02:46:32;;;;;;;20.13;12.73;;;6.70;87.60;;;;;;4915273;29;20115;-15
2022/12/16 02:49:29;;;;;;;22.17;12.98;;;6.70;87.60;;;;;;4916370;29;20127;-16
2022/12/16 02:51:59;;;;;;;22.15;13.70;;;6.80;87.70;;;;;;4916329;29;20039;-13
2022/12/16 02:54:27;;;;;;;20.85;12.38;;;6.80;87.60;;;;;;4916693;29;20075;-15
2022/12/16 02:57:34;;;;;;;20.25;13.07;;;6.90;87.60;;;;;;4916453;29;20024;-16
2022/12/16 03:00:18;;;;;;;19.08;12.10;;;6.90;87.50;;;;;;4904444;28;20036;-15
2022/12/16 03:03:19;;;;;;;21.48;12.98;;;6.90;87.50;;;;;;4975724;28;20423;-13
2022/12/16 03:05:48;;;;;;;20.15;12.60;;;6.90;87.50;;;;;;4943815;28;20050;-16
2022/12/16 03:08:30;;;;;;;19.65;12.02;;;7.00;87.40;;;;;;4975887;28;20443;-17
2022/12/16 03:11:00;;;;;;;20.60;12.40;;;7.00;87.30;;;;;;4975459;28;20027;-15
2022/12/16 03:13:31;;;;;;;21.98;13.05;;;7.10;87.20;;;;;;4975522;28;20035;-18
2022/12/16 03:16:00;;;;;;;23.63;14.43;;;7.10;87.20;;;;;;4975777;28;20065;-17
2022/12/16 03:18:26;;;;;;;21.80;13.35;;;7.00;87.10;;;;;;4975346;28;20041;-15
2022/12/16 03:21:04;;;;;;;22.45;13.80;;;7.10;87.00;;;;;;4973914;28;20022;-17
2022/12/16 03:23:55;;;;;;;20.85;12.82;;;7.00;87.00;;;;;;4975754;28;20027;-13
2022/12/16 03:26:26;;;;;;;23.58;13.38;;;7.00;86.90;;;;;;4975492;28;20390;-17
2022/12/16 03:29:03;;;;;;;24.67;14.35;;;7.00;87.00;;;;;;4975373;28;20412;-17
2022/12/16 03:31:58;;;;;;;23.23;14.50;;;7.00;87.00;;;;;;4975576;28;20401;-13
2022/12/16 03:34:48;;;;;;;24.55;14.15;;;7.00;86.90;;;;;;4973956;28;20027;-16
2022/12/16 03:37:14;;;;;;;23.90;14.57;;;6.90;86.90;;;;;;4974113;28;20037;-15
2022/12/16 03:39:45;;;;;;;22.75;13.68;;;6.90;86.90;;;;;;4975269;28;20057;-12
2022/12/16 03:42:14;;;;;;;27.02;15.35;;;6.90;86.90;;;;;;4973827;28;20035;-17
2022/12/16 03:44:42;;;;;;;21.15;13.45;;;6.90;86.90;;;;;;4974968;28;20359;-16
2022/12/16 03:47:08;;;;;;;27.15;14.85;;;6.90;86.90;;;;;;4974937;28;20069;-15
2022/12/16 03:49:34;;;;;;;24.75;14.68;;;6.90;86.90;;;;;;4974819;28;20039;-16
2022/12/16 03:52:00;;;;;;;24.23;13.65;;;6.90;87.00;;;;;;4975094;28;20030;-18
2022/12/16 03:54:32;;;;;;;26.88;14.98;;;6.90;87.00;;;;;;4975094;28;20042;-16
2022/12/16 03:56:58;;;;;;;24.13;14.57;;;6.90;86.90;;;;;;4974531;28;20050;-15
2022/12/16 03:59:24;;;;;;;26.00;15.32;;;6.90;86.80;;;;;;4974906;28;20089;-11
2022/12/16 04:01:51;;;;;;;22.52;14.13;;;6.90;86.80;;;;;;4974640;28;20027;-14
2022/12/16 04:04:17;;;;;;;24.63;14.73;;;6.80;86.80;;;;;;4974510;28;20050;-13
2022/12/16 04:06:43;;;;;;;23.88;14.35;;;6.80;86.80;;;;;;4974579;28;20066;-15
2022/12/16 04:09:09;;;;;;;23.60;13.80;;;6.70;86.90;;;;;;4974279;28;20105;-13
2022/12/16 04:25:35;;;;;;;21.77;13.90;;;6.60;87.30;;;;;;4974642;28;20037;-12
2022/12/16 04:28:01;;;;;;;22.48;13.30;;;6.60;87.20;;;;;;4974748;28;20019;-13
2022/12/16 04:30:33;;;;;;;21.92;14.20;;;6.60;87.10;;;;;;4974183;28;20082;-13
